Rutland, Iowa
Current Conditions -  °F | °C
As of 12:55 AM on Monday 24 Nov 2014 (Local Time) from KFOD Reporting Station
Overcast Overcast  
Wind Chill: 20°   Ceiling: 2600
Heat Index: 30°   Visibility: 10mi
Dew Point: 23°   Wind: 13mph
Humidity: 75%   Direction: 320°NW
Pressure: 29.4"   Gusts: 24mph
Location:  42.76°N, 94.3°W
Report Text: KFOD 240655Z AUTO 32011G21KT 280V340 10SM SCT018 BKN026 OVC030 M01/M05 A2940 RMK AO1
Loading
Personal Weather Stations






























Interactive Weather Map New forecast layout! Learn more

10-Day Weather Forecast

Advertisements
Track Severe Weather on mobile